sensor_id;sensor_type;location;lat;lon;timestamp;temperature;humidity
26051;DHT22;13825;53.496;10.020;2023-08-06T00:42:24;15.70;99.90
26051;DHT22;13825;53.496;10.020;2023-08-06T00:44:54;15.70;99.90
26051;DHT22;13825;53.496;10.020;2023-08-06T00:47:21;15.70;99.90
26051;DHT22;13825;53.496;10.020;2023-08-06T00:49:51;15.60;99.90
26051;DHT22;13825;53.496;10.020;2023-08-06T00:52:24;15.60;99.90
26051;DHT22;13825;53.496;10.020;2023-08-06T00:54:58;15.60;99.90
26051;DHT22;13825;53.496;10.020;2023-08-06T00:57:27;15.60;99.90
26051;DHT22;13825;53.496;10.020;2023-08-06T00:59:57;15.60;99.90
26051;DHT22;13825;53.496;10.020;2023-08-06T01:02:31;15.60;99.90
26051;DHT22;13825;53.496;10.020;2023-08-06T01:05:06;15.60;99.90
26051;DHT22;13825;53.496;10.020;2023-08-06T01:07:47;15.60;99.90
26051;DHT22;13825;53.496;10.020;2023-08-06T01:10:31;15.70;99.90
26051;DHT22;13825;53.496;10.020;2023-08-06T01:13:15;15.70;99.90
26051;DHT22;13825;53.496;10.020;2023-08-06T04:23:42;15.40;99.90
26051;DHT22;13825;53.496;10.020;2023-08-06T04:26:23;15.40;99.90
26051;DHT22;13825;53.496;10.020;2023-08-06T04:28:54;15.30;99.90
26051;DHT22;13825;53.496;10.020;2023-08-06T04:31:22;15.20;99.90
26051;DHT22;13825;53.496;10.020;2023-08-06T04:33:50;15.20;99.90
26051;DHT22;13825;53.496;10.020;2023-08-06T04:36:17;15.20;99.90
26051;DHT22;13825;53.496;10.020;2023-08-06T04:38:51;15.30;99.90
26051;DHT22;13825;53.496;10.020;2023-08-06T04:41:27;15.20;99.90
26051;DHT22;13825;53.496;10.020;2023-08-06T04:43:54;15.30;99.90
26051;DHT22;13825;53.496;10.020;2023-08-06T04:46:26;15.20;99.90
26051;DHT22;13825;53.496;10.020;2023-08-06T04:48:53;15.20;99.90
26051;DHT22;13825;53.496;10.020;2023-08-06T04:51:22;15.20;99.90
26051;DHT22;13825;53.496;10.020;2023-08-06T04:53:51;15.20;99.90
26051;DHT22;13825;53.496;10.020;2023-08-06T04:56:20;15.10;99.90
26051;DHT22;13825;53.496;10.020;2023-08-06T04:58:51;15.20;99.90
26051;DHT22;13825;53.496;10.020;2023-08-06T05:01:18;15.20;99.90
26051;DHT22;13825;53.496;10.020;2023-08-06T05:03:47;15.10;99.90
26051;DHT22;13825;53.496;10.020;2023-08-06T05:06:14;15.20;99.90
26051;DHT22;13825;53.496;10.020;2023-08-06T05:08:41;15.30;99.90
26051;DHT22;13825;53.496;10.020;2023-08-06T05:11:12;15.20;99.90
26051;DHT22;13825;53.496;10.020;2023-08-06T05:13:40;15.30;99.90
26051;DHT22;13825;53.496;10.020;2023-08-06T05:16:09;15.30;99.90
26051;DHT22;13825;53.496;10.020;2023-08-06T05:18:36;15.30;99.90
26051;DHT22;13825;53.496;10.020;2023-08-06T05:21:06;15.30;99.90
26051;DHT22;13825;53.496;10.020;2023-08-06T05:23:39;15.40;99.90
26051;DHT22;13825;53.496;10.020;2023-08-06T05:26:06;15.40;99.90
26051;DHT22;13825;53.496;10.020;2023-08-06T05:28:35;15.50;99.90
26051;DHT22;13825;53.496;10.020;2023-08-06T05:31:03;15.50;99.90
26051;DHT22;13825;53.496;10.020;2023-08-06T05:33:36;15.50;99.90
26051;DHT22;13825;53.496;10.020;2023-08-06T05:36:04;15.60;99.90
26051;DHT22;13825;53.496;10.020;2023-08-06T05:38:48;15.60;99.90
26051;DHT22;13825;53.496;10.020;2023-08-06T05:41:33;15.70;99.90
26051;DHT22;13825;53.496;10.020;2023-08-06T05:46:57;15.70;99.90
26051;DHT22;13825;53.496;10.020;2023-08-06T05:49:32;15.70;99.90
26051;DHT22;13825;53.496;10.020;2023-08-06T05:52:08;15.70;99.90
26051;DHT22;13825;53.496;10.020;2023-08-06T05:55:04;15.80;99.90
26051;DHT22;13825;53.496;10.020;2023-08-06T05:57:39;15.70;99.90
26051;DHT22;13825;53.496;10.020;2023-08-06T06:00:12;15.80;99.90
26051;DHT22;13825;53.496;10.020;2023-08-06T06:02:56;15.80;99.90
26051;DHT22;13825;53.496;10.020;2023-08-06T06:11:08;15.90;99.90
26051;DHT22;13825;53.496;10.020;2023-08-06T08:23:31;18.70;99.90
26051;DHT22;13825;53.496;10.020;2023-08-06T08:26:14;18.30;99.90
26051;DHT22;13825;53.496;10.020;2023-08-06T08:29:28;18.50;99.90
26051;DHT22;13825;53.496;10.020;2023-08-06T08:35:49;19.00;99.90
26051;DHT22;13825;53.496;10.020;2023-08-06T08:38:54;18.60;99.90
26051;DHT22;13825;53.496;10.020;2023-08-06T08:41:57;18.90;99.90
26051;DHT22;13825;53.496;10.020;2023-08-06T08:44:31;19.10;99.90
26051;DHT22;13825;53.496;10.020;2023-08-06T08:46:59;19.00;99.90
26051;DHT22;13825;53.496;10.020;2023-08-06T08:49:26;19.00;99.90
26051;DHT22;13825;53.496;10.020;2023-08-06T08:51:54;19.10;99.90
26051;DHT22;13825;53.496;10.020;2023-08-06T08:54:24;19.00;99.90
26051;DHT22;13825;53.496;10.020;2023-08-06T08:57:14;19.10;99.90
26051;DHT22;13825;53.496;10.020;2023-08-06T08:59:54;19.20;99.90
26051;DHT22;13825;53.496;10.020;2023-08-06T09:02:56;19.30;99.90
26051;DHT22;13825;53.496;10.020;2023-08-06T09:06:01;19.40;99.90
26051;DHT22;13825;53.496;10.020;2023-08-06T09:09:08;19.30;99.90
26051;DHT22;13825;53.496;10.020;2023-08-06T09:12:25;19.40;99.90
26051;DHT22;13825;53.496;10.020;2023-08-06T09:15:18;19.50;99.90
26051;DHT22;13825;53.496;10.020;2023-08-06T09:21:15;19.40;99.90
26051;DHT22;13825;53.496;10.020;2023-08-06T09:24:17;19.40;99.90
26051;DHT22;13825;53.496;10.020;2023-08-06T09:27:51;19.40;99.90
26051;DHT22;13825;53.496;10.020;2023-08-06T09:33:39;19.20;99.90
26051;DHT22;13825;53.496;10.020;2023-08-06T09:36:33;19.40;99.90
26051;DHT22;13825;53.496;10.020;2023-08-06T09:39:29;19.40;99.90
26051;DHT22;13825;53.496;10.020;2023-08-06T09:42:24;19.20;99.90
26051;DHT22;13825;53.496;10.020;2023-08-06T09:44:51;19.20;99.90
26051;DHT22;13825;53.496;10.020;2023-08-06T09:47:17;19.20;99.90
26051;DHT22;13825;53.496;10.020;2023-08-06T09:49:45;19.30;99.90
26051;DHT22;13825;53.496;10.020;2023-08-06T09:52:13;19.40;99.90
26051;DHT22;13825;53.496;10.020;2023-08-06T09:55:00;19.20;99.90
26051;DHT22;13825;53.496;10.020;2023-08-06T10:10:36;19.00;99.90
26051;DHT22;13825;53.496;10.020;2023-08-06T10:13:04;18.90;99.90
26051;DHT22;13825;53.496;10.020;2023-08-06T10:15:32;18.90;99.90
26051;DHT22;13825;53.496;10.020;2023-08-06T10:18:00;19.10;99.90
26051;DHT22;13825;53.496;10.020;2023-08-06T10:21:06;19.30;99.90
26051;DHT22;13825;53.496;10.020;2023-08-06T10:23:54;19.40;99.90
26051;DHT22;13825;53.496;10.020;2023-08-06T10:26:25;19.50;99.90
26051;DHT22;13825;53.496;10.020;2023-08-06T10:28:52;19.50;99.90
26051;DHT22;13825;53.496;10.020;2023-08-06T10:31:19;19.40;99.90
26051;DHT22;13825;53.496;10.020;2023-08-06T10:33:47;19.40;99.90
26051;DHT22;13825;53.496;10.020;2023-08-06T10:36:14;19.50;99.90
26051;DHT22;13825;53.496;10.020;2023-08-06T10:38:45;19.40;99.90
26051;DHT22;13825;53.496;10.020;2023-08-06T10:41:29;19.50;99.90
26051;DHT22;13825;53.496;10.020;2023-08-06T10:44:05;19.50;99.90
26051;DHT22;13825;53.496;10.020;2023-08-06T10:46:34;19.10;99.90
26051;DHT22;13825;53.496;10.020;2023-08-06T10:49:01;19.20;99.90
26051;DHT22;13825;53.496;10.020;2023-08-06T10:51:28;19.00;99.90
26051;DHT22;13825;53.496;10.020;2023-08-06T10:53:55;19.10;99.90
26051;DHT22;13825;53.496;10.020;2023-08-06T10:56:25;18.80;99.90
26051;DHT22;13825;53.496;10.020;2023-08-06T10:58:54;18.80;77.30
26051;DHT22;13825;53.496;10.020;2023-08-06T11:01:22;18.70;99.90
26051;DHT22;13825;53.496;10.020;2023-08-06T11:03:49;18.80;99.90
26051;DHT22;13825;53.496;10.020;2023-08-06T11:06:19;18.80;99.90
26051;DHT22;13825;53.496;10.020;2023-08-06T11:08:50;19.00;99.90
26051;DHT22;13825;53.496;10.020;2023-08-06T11:11:19;19.10;99.90
26051;DHT22;13825;53.496;10.020;2023-08-06T11:13:48;19.00;99.90
26051;DHT22;13825;53.496;10.020;2023-08-06T11:16:17;18.90;99.90
26051;DHT22;13825;53.496;10.020;2023-08-06T11:18:46;18.90;99.90
26051;DHT22;13825;53.496;10.020;2023-08-06T11:21:13;19.00;99.90
26051;DHT22;13825;53.496;10.020;2023-08-06T11:23:41;19.00;99.90
26051;DHT22;13825;53.496;10.020;2023-08-06T11:26:08;18.80;99.90
26051;DHT22;13825;53.496;10.020;2023-08-06T11:28:35;18.90;99.90
26051;DHT22;13825;53.496;10.020;2023-08-06T11:31:03;18.80;99.90
26051;DHT22;13825;53.496;10.020;2023-08-06T11:33:30;18.70;99.90
26051;DHT22;13825;53.496;10.020;2023-08-06T11:35:58;18.90;99.90
26051;DHT22;13825;53.496;10.020;2023-08-06T11:38:26;19.00;99.90
26051;DHT22;13825;53.496;10.020;2023-08-06T11:40:53;19.10;99.90
26051;DHT22;13825;53.496;10.020;2023-08-06T11:43:21;19.20;99.90
26051;DHT22;13825;53.496;10.020;2023-08-06T11:45:49;19.10;99.90
26051;DHT22;13825;53.496;10.020;2023-08-06T11:48:17;19.20;99.90
26051;DHT22;13825;53.496;10.020;2023-08-06T11:50:44;19.20;99.90
26051;DHT22;13825;53.496;10.020;2023-08-06T11:53:13;19.40;99.90
26051;DHT22;13825;53.496;10.020;2023-08-06T11:55:41;19.40;99.90
26051;DHT22;13825;53.496;10.020;2023-08-06T11:58:09;19.30;99.90
26051;DHT22;13825;53.496;10.020;2023-08-06T12:00:37;19.40;99.90
26051;DHT22;13825;53.496;10.020;2023-08-06T12:03:05;19.30;57.80
26051;DHT22;13825;53.496;10.020;2023-08-06T12:05:34;19.30;99.90
26051;DHT22;13825;53.496;10.020;2023-08-06T12:08:02;19.30;99.90
26051;DHT22;13825;53.496;10.020;2023-08-06T12:10:31;19.20;99.90
26051;DHT22;13825;53.496;10.020;2023-08-06T12:12:58;18.90;99.90
26051;DHT22;13825;53.496;10.020;2023-08-06T12:15:25;18.90;99.90
26051;DHT22;13825;53.496;10.020;2023-08-06T12:17:52;19.00;99.90
26051;DHT22;13825;53.496;10.020;2023-08-06T12:20:19;19.00;99.90
26051;DHT22;13825;53.496;10.020;2023-08-06T12:22:47;18.80;77.10
26051;DHT22;13825;53.496;10.020;2023-08-06T12:25:14;18.90;76.30
26051;DHT22;13825;53.496;10.020;2023-08-06T12:27:42;18.90;99.90
26051;DHT22;13825;53.496;10.020;2023-08-06T12:30:10;18.80;99.90
26051;DHT22;13825;53.496;10.020;2023-08-06T12:32:38;18.70;99.90
26051;DHT22;13825;53.496;10.020;2023-08-06T12:35:06;18.40;99.90
26051;DHT22;13825;53.496;10.020;2023-08-06T12:37:33;18.50;99.90
26051;DHT22;13825;53.496;10.020;2023-08-06T12:40:03;18.70;99.90
26051;DHT22;13825;53.496;10.020;2023-08-06T12:42:29;19.00;99.90
26051;DHT22;13825;53.496;10.020;2023-08-06T12:44:56;19.10;99.90
26051;DHT22;13825;53.496;10.020;2023-08-06T12:47:23;18.80;79.60
26051;DHT22;13825;53.496;10.020;2023-08-06T12:49:50;18.90;99.90
26051;DHT22;13825;53.496;10.020;2023-08-06T12:52:17;19.30;99.90
26051;DHT22;13825;53.496;10.020;2023-08-06T12:54:45;19.10;99.90
26051;DHT22;13825;53.496;10.020;2023-08-06T12:57:13;19.30;99.90
26051;DHT22;13825;53.496;10.020;2023-08-06T12:59:40;19.70;99.90
26051;DHT22;13825;53.496;10.020;2023-08-06T13:02:07;19.60;54.20
26051;DHT22;13825;53.496;10.020;2023-08-06T13:04:34;19.30;1.00
26051;DHT22;13825;53.496;10.020;2023-08-06T13:07:01;19.00;46.00
26051;DHT22;13825;53.496;10.020;2023-08-06T13:09:28;18.90;99.90
26051;DHT22;13825;53.496;10.020;2023-08-06T13:11:58;19.50;99.90
26051;DHT22;13825;53.496;10.020;2023-08-06T13:14:26;19.40;1.00
26051;DHT22;13825;53.496;10.020;2023-08-06T13:16:55;19.40;99.90
26051;DHT22;13825;53.496;10.020;2023-08-06T13:19:22;19.10;1.00
26051;DHT22;13825;53.496;10.020;2023-08-06T13:21:59;19.30;56.60
26051;DHT22;13825;53.496;10.020;2023-08-06T13:24:27;19.50;1.00
26051;DHT22;13825;53.496;10.020;2023-08-06T13:26:54;19.60;99.90
26051;DHT22;13825;53.496;10.020;2023-08-06T13:29:21;20.20;1.00
26051;DHT22;13825;53.496;10.020;2023-08-06T13:31:49;19.90;99.90
26051;DHT22;13825;53.496;10.020;2023-08-06T13:34:16;20.30;1.00
26051;DHT22;13825;53.496;10.020;2023-08-06T13:36:43;20.10;1.00
26051;DHT22;13825;53.496;10.020;2023-08-06T13:39:10;20.40;99.90
26051;DHT22;13825;53.496;10.020;2023-08-06T13:41:37;20.40;1.00
26051;DHT22;13825;53.496;10.020;2023-08-06T13:44:05;20.10;99.90
26051;DHT22;13825;53.496;10.020;2023-08-06T13:46:32;20.00;29.30
26051;DHT22;13825;53.496;10.020;2023-08-06T13:49:00;20.20;99.90
26051;DHT22;13825;53.496;10.020;2023-08-06T13:51:27;19.60;1.00
26051;DHT22;13825;53.496;10.020;2023-08-06T13:53:54;19.70;1.00
26051;DHT22;13825;53.496;10.020;2023-08-06T13:56:23;19.60;1.00
26051;DHT22;13825;53.496;10.020;2023-08-06T13:58:50;19.60;99.90
26051;DHT22;13825;53.496;10.020;2023-08-06T14:01:17;19.80;99.90
26051;DHT22;13825;53.496;10.020;2023-08-06T14:03:45;19.70;99.90
26051;DHT22;13825;53.496;10.020;2023-08-06T14:06:13;19.80;99.90
26051;DHT22;13825;53.496;10.020;2023-08-06T14:08:40;19.50;99.90
26051;DHT22;13825;53.496;10.020;2023-08-06T14:11:07;19.50;99.90
26051;DHT22;13825;53.496;10.020;2023-08-06T14:13:34;19.30;1.00
26051;DHT22;13825;53.496;10.020;2023-08-06T14:16:01;19.30;1.00
26051;DHT22;13825;53.496;10.020;2023-08-06T14:18:28;19.60;6.80
26051;DHT22;13825;53.496;10.020;2023-08-06T14:20:54;19.50;99.90
26051;DHT22;13825;53.496;10.020;2023-08-06T14:23:23;19.50;99.90
26051;DHT22;13825;53.496;10.020;2023-08-06T14:25:50;19.50;99.90
26051;DHT22;13825;53.496;10.020;2023-08-06T14:28:16;19.50;1.00
26051;DHT22;13825;53.496;10.020;2023-08-06T14:30:43;19.50;1.00
26051;DHT22;13825;53.496;10.020;2023-08-06T14:33:10;19.60;1.00
26051;DHT22;13825;53.496;10.020;2023-08-06T14:35:37;19.80;99.90
26051;DHT22;13825;53.496;10.020;2023-08-06T14:38:04;20.00;99.90
26051;DHT22;13825;53.496;10.020;2023-08-06T14:40:33;20.10;1.00
26051;DHT22;13825;53.496;10.020;2023-08-06T14:43:03;20.20;62.00
26051;DHT22;13825;53.496;10.020;2023-08-06T14:45:30;20.60;1.00
26051;DHT22;13825;53.496;10.020;2023-08-06T14:47:57;20.20;1.00
26051;DHT22;13825;53.496;10.020;2023-08-06T14:50:24;19.80;99.90
26051;DHT22;13825;53.496;10.020;2023-08-06T14:52:51;19.60;1.00
26051;DHT22;13825;53.496;10.020;2023-08-06T14:55:24;19.20;99.90
26051;DHT22;13825;53.496;10.020;2023-08-06T14:57:53;18.90;1.00
26051;DHT22;13825;53.496;10.020;2023-08-06T15:00:20;18.80;99.90
26051;DHT22;13825;53.496;10.020;2023-08-06T15:02:47;18.90;88.50
26051;DHT22;13825;53.496;10.020;2023-08-06T15:05:14;18.70;99.90
26051;DHT22;13825;53.496;10.020;2023-08-06T15:07:41;18.60;99.90
26051;DHT22;13825;53.496;10.020;2023-08-06T15:10:08;18.40;99.90
26051;DHT22;13825;53.496;10.020;2023-08-06T15:12:35;18.40;28.80
26051;DHT22;13825;53.496;10.020;2023-08-06T15:15:06;18.40;99.90
26051;DHT22;13825;53.496;10.020;2023-08-06T15:17:33;18.30;70.40
26051;DHT22;13825;53.496;10.020;2023-08-06T15:19:59;18.40;82.10
26051;DHT22;13825;53.496;10.020;2023-08-06T15:22:26;18.30;99.90
26051;DHT22;13825;53.496;10.020;2023-08-06T15:24:54;18.50;99.90
26051;DHT22;13825;53.496;10.020;2023-08-06T15:27:21;18.30;96.80
26051;DHT22;13825;53.496;10.020;2023-08-06T15:29:48;18.40;99.90
26051;DHT22;13825;53.496;10.020;2023-08-06T15:32:16;18.20;1.00
26051;DHT22;13825;53.496;10.020;2023-08-06T15:34:43;18.30;18.80
26051;DHT22;13825;53.496;10.020;2023-08-06T15:37:10;18.10;1.00
26051;DHT22;13825;53.496;10.020;2023-08-06T15:39:37;18.10;1.00
26051;DHT22;13825;53.496;10.020;2023-08-06T15:42:30;18.10;1.00
26051;DHT22;13825;53.496;10.020;2023-08-06T15:44:57;18.00;67.10
26051;DHT22;13825;53.496;10.020;2023-08-06T15:47:26;18.10;1.00
26051;DHT22;13825;53.496;10.020;2023-08-06T15:49:53;18.10;1.00
26051;DHT22;13825;53.496;10.020;2023-08-06T15:52:20;18.20;99.90
26051;DHT22;13825;53.496;10.020;2023-08-06T15:54:47;18.10;99.90
26051;DHT22;13825;53.496;10.020;2023-08-06T15:57:14;18.20;99.90
26051;DHT22;13825;53.496;10.020;2023-08-06T15:59:42;18.30;99.90
26051;DHT22;13825;53.496;10.020;2023-08-06T16:02:09;18.30;99.90
26051;DHT22;13825;53.496;10.020;2023-08-06T16:04:39;18.20;99.90
26051;DHT22;13825;53.496;10.020;2023-08-06T16:07:06;18.10;99.90
26051;DHT22;13825;53.496;10.020;2023-08-06T16:09:32;18.00;1.00
26051;DHT22;13825;53.496;10.020;2023-08-06T16:11:59;17.90;1.00
26051;DHT22;13825;53.496;10.020;2023-08-06T16:14:26;17.80;49.50
26051;DHT22;13825;53.496;10.020;2023-08-06T16:16:53;17.80;1.00
26051;DHT22;13825;53.496;10.020;2023-08-06T16:19:20;17.70;17.40
26051;DHT22;13825;53.496;10.020;2023-08-06T16:21:48;17.70;1.00
26051;DHT22;13825;53.496;10.020;2023-08-06T16:24:15;17.70;1.00
26051;DHT22;13825;53.496;10.020;2023-08-06T16:26:42;17.70;1.00
26051;DHT22;13825;53.496;10.020;2023-08-06T16:29:09;17.70;1.00
26051;DHT22;13825;53.496;10.020;2023-08-06T16:31:36;17.70;99.90
26051;DHT22;13825;53.496;10.020;2023-08-06T16:34:03;17.70;1.00
26051;DHT22;13825;53.496;10.020;2023-08-06T16:36:29;17.70;99.90
26051;DHT22;13825;53.496;10.020;2023-08-06T16:38:58;17.80;99.90
26051;DHT22;13825;53.496;10.020;2023-08-06T16:41:24;17.80;1.00
26051;DHT22;13825;53.496;10.020;2023-08-06T16:43:51;17.80;24.80
26051;DHT22;13825;53.496;10.020;2023-08-06T16:46:18;17.80;1.00
26051;DHT22;13825;53.496;10.020;2023-08-06T16:48:46;17.90;1.00
26051;DHT22;13825;53.496;10.020;2023-08-06T16:51:13;17.90;99.90
26051;DHT22;13825;53.496;10.020;2023-08-06T16:53:41;18.00;1.00
26051;DHT22;13825;53.496;10.020;2023-08-06T16:56:10;18.00;1.00
26051;DHT22;13825;53.496;10.020;2023-08-06T16:58:38;17.90;99.90
26051;DHT22;13825;53.496;10.020;2023-08-06T17:01:05;17.80;1.00
26051;DHT22;13825;53.496;10.020;2023-08-06T17:03:32;17.80;1.00
26051;DHT22;13825;53.496;10.020;2023-08-06T17:05:59;17.70;1.00
26051;DHT22;13825;53.496;10.020;2023-08-06T17:08:27;17.70;99.90
26051;DHT22;13825;53.496;10.020;2023-08-06T17:10:56;17.70;99.90
26051;DHT22;13825;53.496;10.020;2023-08-06T17:13:25;17.70;99.90
26051;DHT22;13825;53.496;10.020;2023-08-06T17:15:52;17.60;1.00
26051;DHT22;13825;53.496;10.020;2023-08-06T17:18:19;17.70;1.00
26051;DHT22;13825;53.496;10.020;2023-08-06T17:20:46;17.70;99.90
26051;DHT22;13825;53.496;10.020;2023-08-06T17:23:13;17.70;99.90
26051;DHT22;13825;53.496;10.020;2023-08-06T17:25:41;17.60;99.90
26051;DHT22;13825;53.496;10.020;2023-08-06T17:28:08;17.50;1.00
26051;DHT22;13825;53.496;10.020;2023-08-06T17:30:38;17.50;1.00
26051;DHT22;13825;53.496;10.020;2023-08-06T17:33:05;17.60;99.90
26051;DHT22;13825;53.496;10.020;2023-08-06T17:35:33;17.60;1.00
26051;DHT22;13825;53.496;10.020;2023-08-06T17:38:00;17.60;1.00
26051;DHT22;13825;53.496;10.020;2023-08-06T17:40:28;17.60;1.00
26051;DHT22;13825;53.496;10.020;2023-08-06T17:42:55;17.70;1.00
26051;DHT22;13825;53.496;10.020;2023-08-06T17:45:22;17.70;99.90
26051;DHT22;13825;53.496;10.020;2023-08-06T17:47:51;17.60;99.90
26051;DHT22;13825;53.496;10.020;2023-08-06T17:50:18;17.50;1.00
26051;DHT22;13825;53.496;10.020;2023-08-06T17:52:45;17.50;1.00
26051;DHT22;13825;53.496;10.020;2023-08-06T17:55:13;17.50;99.90
26051;DHT22;13825;53.496;10.020;2023-08-06T17:57:40;17.60;1.00
26051;DHT22;13825;53.496;10.020;2023-08-06T18:00:08;17.60;1.00
26051;DHT22;13825;53.496;10.020;2023-08-06T18:02:35;17.60;1.00
26051;DHT22;13825;53.496;10.020;2023-08-06T18:05:04;17.60;99.90
26051;DHT22;13825;53.496;10.020;2023-08-06T18:07:31;17.50;99.90
26051;DHT22;13825;53.496;10.020;2023-08-06T18:09:58;17.50;1.00
26051;DHT22;13825;53.496;10.020;2023-08-06T18:12:25;17.50;1.00
26051;DHT22;13825;53.496;10.020;2023-08-06T18:14:51;17.50;1.00
26051;DHT22;13825;53.496;10.020;2023-08-06T18:17:18;17.40;1.00
26051;DHT22;13825;53.496;10.020;2023-08-06T18:19:45;17.40;99.90
26051;DHT22;13825;53.496;10.020;2023-08-06T18:22:13;17.40;99.90
26051;DHT22;13825;53.496;10.020;2023-08-06T18:24:40;17.40;99.90
26051;DHT22;13825;53.496;10.020;2023-08-06T18:27:07;17.40;99.90
26051;DHT22;13825;53.496;10.020;2023-08-06T18:29:34;17.50;1.00
26051;DHT22;13825;53.496;10.020;2023-08-06T18:32:02;17.40;1.00
26051;DHT22;13825;53.496;10.020;2023-08-06T18:34:29;17.40;99.90
26051;DHT22;13825;53.496;10.020;2023-08-06T18:36:56;17.40;99.90
26051;DHT22;13825;53.496;10.020;2023-08-06T18:39:24;17.40;99.90
26051;DHT22;13825;53.496;10.020;2023-08-06T18:41:51;17.20;1.00
26051;DHT22;13825;53.496;10.020;2023-08-06T18:44:18;17.20;99.90
26051;DHT22;13825;53.496;10.020;2023-08-06T18:46:45;17.20;99.90
26051;DHT22;13825;53.496;10.020;2023-08-06T18:49:12;17.20;99.90
26051;DHT22;13825;53.496;10.020;2023-08-06T18:51:40;17.10;99.90
26051;DHT22;13825;53.496;10.020;2023-08-06T18:54:07;17.10;1.00
26051;DHT22;13825;53.496;10.020;2023-08-06T18:56:35;17.00;1.00
26051;DHT22;13825;53.496;10.020;2023-08-06T18:59:02;17.00;1.00
26051;DHT22;13825;53.496;10.020;2023-08-06T19:01:29;17.00;1.00
26051;DHT22;13825;53.496;10.020;2023-08-06T19:03:56;17.00;1.00
26051;DHT22;13825;53.496;10.020;2023-08-06T19:06:23;17.00;1.00
26051;DHT22;13825;53.496;10.020;2023-08-06T19:08:53;17.00;1.00
26051;DHT22;13825;53.496;10.020;2023-08-06T19:11:20;17.00;1.00
26051;DHT22;13825;53.496;10.020;2023-08-06T19:13:48;16.90;1.00
26051;DHT22;13825;53.496;10.020;2023-08-06T19:16:15;17.00;1.00
26051;DHT22;13825;53.496;10.020;2023-08-06T19:18:42;16.90;1.00
26051;DHT22;13825;53.496;10.020;2023-08-06T19:21:09;16.90;99.90
26051;DHT22;13825;53.496;10.020;2023-08-06T19:23:36;17.00;99.90
26051;DHT22;13825;53.496;10.020;2023-08-06T19:26:03;17.00;99.90
26051;DHT22;13825;53.496;10.020;2023-08-06T19:28:30;17.00;99.90
26051;DHT22;13825;53.496;10.020;2023-08-06T19:30:59;17.00;99.90
26051;DHT22;13825;53.496;10.020;2023-08-06T19:33:26;17.00;1.00
26051;DHT22;13825;53.496;10.020;2023-08-06T19:35:53;17.00;99.90
26051;DHT22;13825;53.496;10.020;2023-08-06T19:38:21;17.00;1.00
26051;DHT22;13825;53.496;10.020;2023-08-06T19:40:49;17.00;1.00
26051;DHT22;13825;53.496;10.020;2023-08-06T19:43:17;17.00;1.00
26051;DHT22;13825;53.496;10.020;2023-08-06T19:45:48;17.10;1.00
26051;DHT22;13825;53.496;10.020;2023-08-06T19:48:16;17.10;1.00
26051;DHT22;13825;53.496;10.020;2023-08-06T19:50:50;17.10;1.00
26051;DHT22;13825;53.496;10.020;2023-08-06T19:53:17;17.00;1.00
26051;DHT22;13825;53.496;10.020;2023-08-06T19:55:44;17.00;1.00
26051;DHT22;13825;53.496;10.020;2023-08-06T19:58:15;17.00;1.00
26051;DHT22;13825;53.496;10.020;2023-08-06T20:00:42;17.00;1.00
26051;DHT22;13825;53.496;10.020;2023-08-06T20:03:09;17.00;1.00
26051;DHT22;13825;53.496;10.020;2023-08-06T20:05:37;16.90;92.80
26051;DHT22;13825;53.496;10.020;2023-08-06T20:08:04;16.90;1.00
26051;DHT22;13825;53.496;10.020;2023-08-06T20:10:31;16.90;99.90
26051;DHT22;13825;53.496;10.020;2023-08-06T20:12:58;16.90;30.40
26051;DHT22;13825;53.496;10.020;2023-08-06T20:15:25;16.90;42.70
26051;DHT22;13825;53.496;10.020;2023-08-06T20:17:52;16.90;18.00
26051;DHT22;13825;53.496;10.020;2023-08-06T20:20:18;16.80;99.90
26051;DHT22;13825;53.496;10.020;2023-08-06T20:22:47;16.70;99.90
26051;DHT22;13825;53.496;10.020;2023-08-06T20:25:14;16.80;99.90
26051;DHT22;13825;53.496;10.020;2023-08-06T20:27:41;16.80;74.40
26051;DHT22;13825;53.496;10.020;2023-08-06T20:30:08;16.80;99.90
26051;DHT22;13825;53.496;10.020;2023-08-06T20:32:35;16.70;99.90
26051;DHT22;13825;53.496;10.020;2023-08-06T20:35:03;16.70;99.90
26051;DHT22;13825;53.496;10.020;2023-08-06T20:37:30;16.70;99.90
26051;DHT22;13825;53.496;10.020;2023-08-06T20:39:58;16.70;99.90
26051;DHT22;13825;53.496;10.020;2023-08-06T20:42:25;16.80;99.90
26051;DHT22;13825;53.496;10.020;2023-08-06T20:44:52;16.70;99.90
26051;DHT22;13825;53.496;10.020;2023-08-06T20:47:19;16.80;99.90
26051;DHT22;13825;53.496;10.020;2023-08-06T20:49:46;16.70;99.90
26051;DHT22;13825;53.496;10.020;2023-08-06T20:52:12;16.70;99.90
26051;DHT22;13825;53.496;10.020;2023-08-06T20:54:39;16.70;99.90
26051;DHT22;13825;53.496;10.020;2023-08-06T20:57:08;16.80;99.90
26051;DHT22;13825;53.496;10.020;2023-08-06T20:59:35;16.80;99.90
26051;DHT22;13825;53.496;10.020;2023-08-06T21:02:02;16.80;99.90
26051;DHT22;13825;53.496;10.020;2023-08-06T21:04:29;16.70;99.90
26051;DHT22;13825;53.496;10.020;2023-08-06T21:06:55;16.70;99.90
26051;DHT22;13825;53.496;10.020;2023-08-06T21:09:22;16.70;99.90
26051;DHT22;13825;53.496;10.020;2023-08-06T21:11:49;16.80;99.90
26051;DHT22;13825;53.496;10.020;2023-08-06T21:14:18;16.80;99.90
26051;DHT22;13825;53.496;10.020;2023-08-06T21:16:44;16.80;99.90
26051;DHT22;13825;53.496;10.020;2023-08-06T21:19:12;16.80;99.90
26051;DHT22;13825;53.496;10.020;2023-08-06T21:21:38;16.80;99.90
26051;DHT22;13825;53.496;10.020;2023-08-06T21:24:06;16.80;99.90
26051;DHT22;13825;53.496;10.020;2023-08-06T21:26:33;16.80;99.90
26051;DHT22;13825;53.496;10.020;2023-08-06T21:29:00;16.80;99.90
26051;DHT22;13825;53.496;10.020;2023-08-06T21:31:28;16.80;99.90
26051;DHT22;13825;53.496;10.020;2023-08-06T21:33:55;16.80;99.90
26051;DHT22;13825;53.496;10.020;2023-08-06T21:36:22;16.80;99.90
26051;DHT22;13825;53.496;10.020;2023-08-06T21:38:50;16.90;99.90
26051;DHT22;13825;53.496;10.020;2023-08-06T21:41:17;16.90;99.90
26051;DHT22;13825;53.496;10.020;2023-08-06T21:43:45;16.80;99.90
26051;DHT22;13825;53.496;10.020;2023-08-06T21:46:13;16.80;99.90
26051;DHT22;13825;53.496;10.020;2023-08-06T21:48:43;16.80;99.90
26051;DHT22;13825;53.496;10.020;2023-08-06T21:51:13;16.80;99.90
26051;DHT22;13825;53.496;10.020;2023-08-06T21:53:40;16.70;99.90
26051;DHT22;13825;53.496;10.020;2023-08-06T21:56:08;16.70;99.90
26051;DHT22;13825;53.496;10.020;2023-08-06T21:58:37;16.70;99.90
26051;DHT22;13825;53.496;10.020;2023-08-06T22:01:04;16.70;99.90
26051;DHT22;13825;53.496;10.020;2023-08-06T22:03:32;16.70;99.90
26051;DHT22;13825;53.496;10.020;2023-08-06T22:06:00;16.70;99.90
26051;DHT22;13825;53.496;10.020;2023-08-06T22:08:27;16.70;99.90